Airfield :
LOGIN :

Register | Disclaimer

   EN    FR    IT 

 










Legend :    VFR   Marginal VFR   IFR   Intensive IFR   Very Intensive IFR
Visi :
Ceiling :
>= 8 km
>= 3000ft
5 to 8 km
1000 to 3000 ft
1500m to 5 km
500 to 1000 ft
800 to 1500m
200 to 500 ft
< 800m
< 200 ft
Symbols :   Thunderstorms  Fog  Heavy snow  Heavy precipitations  Wind > 20 kt
SIGMETs :     Misc.  Thunderstorms  Icing  Turbulence  Mountain Waves  Volcanic Ashes







- Airport Elevation : 197 ft
- IATA code : XOG
- Download approach charts


LFMO - Orange

CURRENT METAR :
  • 141830Z AUTO 15004KT 9999 FEW042 BKN058 10/06 Q1009 NOSIG

EXPIRED METARs :
  • 141800Z AUTO 20005KT 160V240 9999 BKN062 11/06 Q1009 NOSIG
  • 141730Z AUTO 21006KT 180V240 9999 FEW070 12/06 Q1008 NOSIG
  • 141700Z AUTO 20006KT 9999 FEW074 12/06 Q1009 NOSIG
  • 141630Z AUTO 16005KT 9999 BKN062 BKN080 12/07 Q1009 NOSIG
  • 141600Z AUTO 15007KT 9999 BKN064 BKN082 12/07 Q1009 NOSIG

TAF TAF LFMO
Valid from the 14 at 15:00 until the 15 at 15:00 UTC


141400Z 1415/1515 15010KT 9999 BKN060
BECMG 1504/1506 33005KT
PROB40
TEMPO 1506/1509 3000 BR
No reported NOTAMs for that airfield.
6 SIGMETs reported for the Marseille FIR (LFMM) :
 
Severe turbulence
LFMM SIGMET 9 VALID 141430/141830 LFPW
LFMM MARSEILLE FIR/UIR SEV TURB FCST WI N4345 E00245 - N4630 E00300 - N4630 E00315 - N4415 E00415 - N4330 E00245 - N4345 E00245 SFC/FL080 STNR INTSF=
Severe turbulence
LFMM SIGMET 14 VALID 141700/142000 LFPW
LFMM MARSEILLE FIR/UIR SEV TURB OBS AT 1700Z N OF LINE N4600 E00300 - N4545 E00700 FL160/300 STNR NC=
Severe turbulence
LFMM SIGMET 13 VALID 141800/142100 LFPW
LFMM MARSEILLE FIR/UIR SEV TURB FCST WI N4630 E00545 - N4630 E00700 - N4430 E00700 - N4415 E00615 - N4630 E00545 SFC/FL130 STNR INTSF=
Severe turbulence
LFMM SIGMET 12 VALID 141830/142000 LFPW
LFMM MARSEILLE FIR/UIR SEV TURB FCST WI N4345 E00245 - N4600 E00300 - N4615 E00345 - N4430 E00430 - N4330 E00245 - N4345 E00245 SFC/FL080 STNR NC=
Severe mountain waves
LFMM SIGMET 11 VALID 141700/142000 LFPW
LFMM MARSEILLE FIR/UIR SEV MTW FCST E OF E00845 SFC/FL270 STNR NC=
Severe turbulence
LFMM SIGMET 10 VALID 141700/142000 LFPW
LFMM MARSEILLE FIR/UIR SEV TURB FCST WI N4345 E00745 - N4315 E00945 - N4115 E00945 - N4115 E00900 - N4230 E00845 - N4330 E00715 - N4345 E00745 SFC/FL070 STNR NC=



MET'MAP, your aeronautical weather chart ! - Copyright ORBIFLY December 2007 - Disclaimer

ORBIFLY MET'MAP TEAM :

Programming & Development : Alexandra Zaïnal
Concept & Development : Baudouin d'Aumeries
Co-Development & Prog : Marc-Olivier Méhu
Technical & hardware support : Manuel Goepfert

Contact : metmap@orbifly.com




SOURCES & CREDITS :

   NOAA